Time;durP1;ratioP1;P1;durP2;ratioP2;P2;SDS_P1;SDS_P2;PMS_P1;PMS_P2;Temp;Humidity;BMP_temperature;BMP_pressure;BME280_temperature;BME280_humidity;BME280_pressure;Samples;Min_cycle;Max_cycle;Signal;HPM_P1;HPM_P2
2023/04/01 00:01:14;;;;;;;;;;;10.70;99.90;;;;;;4999134;28;20020;-83
2023/04/01 00:03:40;;;;;;;;;;;10.60;99.90;;;;;;4998131;28;20548;-83
2023/04/01 00:06:05;;;;;;;;;;;10.70;99.90;;;;;;4993587;28;19967;-83
2023/04/01 00:08:33;;;;;;;;;;;10.60;99.90;;;;;;4996456;28;19913;-83
2023/04/01 00:11:05;;;;;;;;;;;10.60;99.90;;;;;;5002616;28;19909;-83
2023/04/01 00:13:32;;;;;;;;;;;10.60;99.90;;;;;;4993372;28;19910;-82
2023/04/01 00:16:01;;;;;;;;;;;10.60;99.90;;;;;;5000271;28;19936;-83
2023/04/01 00:18:31;;;;;;;;;;;10.50;99.90;;;;;;4995382;28;19909;-83
2023/04/01 00:21:01;;;;;;;;;;;10.50;99.90;;;;;;5004774;28;19909;-83
2023/04/01 00:23:33;;;;;;;;;;;10.50;99.90;;;;;;5004057;28;19940;-82
2023/04/01 00:26:09;;;;;;;;;;;10.50;99.90;;;;;;4979989;28;19968;-82
2023/04/01 00:28:36;;;;;;;;;;;10.50;99.90;;;;;;4982780;28;19988;-83
2023/04/01 00:31:10;;;;;;;;;;;10.50;99.90;;;;;;4993516;28;19916;-83
2023/04/01 00:33:35;;;;;;;;;;;10.50;99.90;;;;;;5016793;28;19909;-82
2023/04/01 00:36:14;;;;;;;;;;;10.50;99.90;;;;;;4984119;28;19912;-82
2023/04/01 00:38:42;;;;;;;;;;;10.40;99.90;;;;;;5004143;28;19916;-83
2023/04/01 00:41:20;;;;;;;;;;;10.40;99.90;;;;;;4998685;28;19971;-82
2023/04/01 00:44:06;;;;;;;;;;;10.40;99.90;;;;;;5002656;28;20048;-83
2023/04/01 00:46:32;;;;;;;;;;;10.40;99.90;;;;;;4995964;28;19916;-83
2023/04/01 00:49:00;;;;;;;;;;;10.40;99.90;;;;;;4996053;28;19913;-82
2023/04/01 00:51:35;;;;;;;;;;;10.30;99.90;;;;;;4974902;28;19987;-83
2023/04/01 00:54:03;;;;;;;;;;;10.40;99.90;;;;;;4988723;28;19913;-82
2023/04/01 00:56:40;;;;;;;;;;;10.30;99.90;;;;;;4992632;28;20476;-82
2023/04/01 00:59:18;;;;;;;;;;;10.30;99.90;;;;;;4992374;28;20338;-82
2023/04/01 01:01:44;;;;;;;;;;;10.30;99.90;;;;;;4989191;28;19906;-83
2023/04/01 01:04:25;;;;;;;;;;;10.40;99.90;;;;;;4994263;28;19915;-83
2023/04/01 01:07:22;;;;;;;;;;;10.40;99.90;;;;;;4978408;28;19925;-83
2023/04/01 01:09:49;;;;;;;;;;;10.40;99.90;;;;;;5002991;28;20012;-82
2023/04/01 01:15:25;;;;;;;;;;;10.30;99.90;;;;;;5012684;28;19916;-83
2023/04/01 01:18:08;;;;;;;;;;;10.20;99.90;;;;;;5007470;28;19910;-83
2023/04/01 01:20:52;;;;;;;;;;;10.30;99.90;;;;;;4992650;28;19949;-83
2023/04/01 01:23:31;;;;;;;;;;;10.30;99.90;;;;;;4977566;28;19909;-83
2023/04/01 01:26:12;;;;;;;;;;;10.30;99.90;;;;;;5001414;28;20643;-84
2023/04/01 01:28:45;;;;;;;;;;;10.30;99.90;;;;;;5017110;28;19913;-83
2023/04/01 01:31:31;;;;;;;;;;;10.30;99.90;;;;;;4998968;28;19916;-83
2023/04/01 01:34:10;;;;;;;;;;;10.20;99.90;;;;;;4974655;28;19912;-83
2023/04/01 01:36:38;;;;;;;;;;;10.20;99.90;;;;;;4986026;28;20007;-82
2023/04/01 01:39:06;;;;;;;;;;;10.30;99.90;;;;;;5012472;28;19908;-83
2023/04/01 01:41:34;;;;;;;;;;;10.20;99.90;;;;;;5009346;28;20753;-83
2023/04/01 01:44:08;;;;;;;;;;;10.20;99.90;;;;;;4977117;28;19945;-83
2023/04/01 01:46:36;;;;;;;;;;;10.20;99.90;;;;;;5003035;28;19910;-83
2023/04/01 01:49:09;;;;;;;;;;;10.20;99.90;;;;;;4998105;28;19910;-83
2023/04/01 01:51:38;;;;;;;;;;;10.30;99.90;;;;;;4983720;28;19906;-83
2023/04/01 01:54:04;;;;;;;;;;;10.20;99.90;;;;;;4994070;28;19905;-83
2023/04/01 01:56:30;;;;;;;;;;;10.20;99.90;;;;;;4996189;28;19916;-83
2023/04/01 01:59:03;;;;;;;;;;;10.10;99.90;;;;;;4985978;28;19913;-83
2023/04/01 02:01:31;;;;;;;;;;;10.10;99.90;;;;;;4982491;28;20330;-84
2023/04/01 02:04:01;;;;;;;;;;;10.10;99.90;;;;;;5000249;28;19921;-83
2023/04/01 02:06:47;;;;;;;;;;;10.00;99.90;;;;;;5004971;28;19932;-84
2023/04/01 02:09:14;;;;;;;;;;;10.00;99.90;;;;;;5007146;28;20355;-83
2023/04/01 02:12:02;;;;;;;;;;;10.00;99.90;;;;;;5001094;28;19905;-82
2023/04/01 02:14:50;;;;;;;;;;;10.00;99.90;;;;;;4979132;28;19909;-83
2023/04/01 02:17:19;;;;;;;;;;;9.90;99.90;;;;;;4984086;28;19955;-83
2023/04/01 02:22:45;;;;;;;;;;;9.80;99.90;;;;;;4993652;28;19906;-83
2023/04/01 02:25:24;;;;;;;;;;;9.80;99.90;;;;;;4992270;28;19905;-83
2023/04/01 02:27:51;;;;;;;;;;;9.70;99.90;;;;;;4998638;28;19909;-83
2023/04/01 02:30:17;;;;;;;;;;;9.70;99.90;;;;;;5006247;28;19905;-83
2023/04/01 02:32:44;;;;;;;;;;;9.70;99.90;;;;;;4998335;28;19906;-83
2023/04/01 02:35:18;;;;;;;;;;;9.70;99.90;;;;;;4999817;28;19910;-82
2023/04/01 02:37:46;;;;;;;;;;;9.60;99.90;;;;;;4979066;28;19906;-82
2023/04/01 02:40:14;;;;;;;;;;;9.60;99.90;;;;;;5005713;28;19912;-82
2023/04/01 02:42:52;;;;;;;;;;;9.60;99.90;;;;;;4974446;28;19910;-82
2023/04/01 02:45:21;;;;;;;;;;;9.60;99.90;;;;;;4983745;28;19932;-82
2023/04/01 02:47:54;;;;;;;;;;;9.60;99.90;;;;;;5004207;28;19905;-82
2023/04/01 02:50:22;;;;;;;;;;;9.50;99.90;;;;;;4989307;28;19932;-83
2023/04/01 02:52:49;;;;;;;;;;;9.50;99.90;;;;;;4989500;28;19960;-83
2023/04/01 02:55:16;;;;;;;;;;;9.50;99.90;;;;;;4993725;28;19906;-82
2023/04/01 02:57:44;;;;;;;;;;;9.60;99.90;;;;;;5000615;28;19909;-83
2023/04/01 03:00:11;;;;;;;;;;;9.60;99.90;;;;;;5008189;28;19909;-83
2023/04/01 03:02:44;;;;;;;;;;;9.60;99.90;;;;;;5004514;28;19912;-82
2023/04/01 03:05:09;;;;;;;;;;;9.60;99.90;;;;;;4987835;28;19920;-82
2023/04/01 03:07:38;;;;;;;;;;;9.70;99.90;;;;;;4995565;28;19906;-83
2023/04/01 03:10:04;;;;;;;;;;;9.60;99.90;;;;;;4995648;28;19906;-82
2023/04/01 03:12:36;;;;;;;;;;;9.60;99.90;;;;;;4989762;28;19932;-82
2023/04/01 03:15:04;;;;;;;;;;;9.60;99.90;;;;;;4994867;28;19909;-83
2023/04/01 03:17:30;;;;;;;;;;;9.60;99.90;;;;;;5006581;28;19917;-82
2023/04/01 03:19:56;;;;;;;;;;;9.60;99.90;;;;;;4979135;28;19959;-83
2023/04/01 03:22:29;;;;;;;;;;;9.50;99.90;;;;;;4989684;28;19917;-83
2023/04/01 03:25:03;;;;;;;;;;;9.50;99.90;;;;;;4999348;28;20033;-83
2023/04/01 03:27:29;;;;;;;;;;;9.50;99.90;;;;;;4989148;28;19921;-83
2023/04/01 03:29:56;;;;;;;;;;;9.40;99.90;;;;;;5006055;28;19920;-82
2023/04/01 03:32:23;;;;;;;;;;;9.40;99.90;;;;;;5002604;28;19963;-83
2023/04/01 03:34:59;;;;;;;;;;;9.40;99.90;;;;;;5009100;28;19912;-83
2023/04/01 03:37:28;;;;;;;;;;;9.40;99.90;;;;;;4997782;28;19944;-83
2023/04/01 03:39:56;;;;;;;;;;;9.40;99.90;;;;;;5005193;28;19968;-83
2023/04/01 03:42:23;;;;;;;;;;;9.40;99.90;;;;;;4985119;28;19917;-83
2023/04/01 03:44:56;;;;;;;;;;;9.30;99.90;;;;;;5000593;28;19975;-83
2023/04/01 03:47:27;;;;;;;;;;;9.30;99.90;;;;;;5006004;28;19913;-83
2023/04/01 03:49:53;;;;;;;;;;;9.30;99.90;;;;;;5006101;28;19913;-83
2023/04/01 03:52:19;;;;;;;;;;;9.30;99.90;;;;;;5001333;28;19905;-83
2023/04/01 03:54:46;;;;;;;;;;;9.30;99.90;;;;;;5000172;28;19909;-83
2023/04/01 03:57:15;;;;;;;;;;;9.30;99.90;;;;;;4992768;28;20039;-83
2023/04/01 03:59:42;;;;;;;;;;;9.30;99.90;;;;;;4993419;28;20282;-83
2023/04/01 04:02:08;;;;;;;;;;;9.30;99.90;;;;;;5004093;28;19909;-83
2023/04/01 04:04:33;;;;;;;;;;;9.30;99.90;;;;;;5000122;28;19913;-83
2023/04/01 04:07:04;;;;;;;;;;;9.30;99.90;;;;;;4995966;28;19921;-82
2023/04/01 04:09:31;;;;;;;;;;;9.30;99.90;;;;;;4984002;28;19909;-83
2023/04/01 04:11:57;;;;;;;;;;;9.30;99.90;;;;;;5004558;28;19921;-83
2023/04/01 04:14:23;;;;;;;;;;;9.30;99.90;;;;;;4994830;28;19914;-83
2023/04/01 04:16:49;;;;;;;;;;;9.30;99.90;;;;;;5007856;28;19944;-83
2023/04/01 04:19:17;;;;;;;;;;;9.30;99.90;;;;;;4980981;28;19994;-83
2023/04/01 04:21:43;;;;;;;;;;;9.30;99.90;;;;;;5001905;28;19948;-83
2023/04/01 04:24:10;;;;;;;;;;;9.30;99.90;;;;;;4996879;28;19913;-83
2023/04/01 04:26:44;;;;;;;;;;;9.20;99.90;;;;;;4992457;28;19913;-83
2023/04/01 04:29:17;;;;;;;;;;;9.20;99.90;;;;;;4985459;28;20000;-85
2023/04/01 04:31:47;;;;;;;;;;;9.20;99.90;;;;;;4991992;28;19915;-83
2023/04/01 04:34:13;;;;;;;;;;;9.30;99.90;;;;;;4991451;28;19928;-83
2023/04/01 04:36:39;;;;;;;;;;;9.30;99.90;;;;;;4993494;28;19906;-82
2023/04/01 04:39:06;;;;;;;;;;;9.30;99.90;;;;;;4988592;28;19915;-82
2023/04/01 04:41:35;;;;;;;;;;;9.30;99.90;;;;;;4984762;28;19910;-83
2023/04/01 04:44:02;;;;;;;;;;;9.30;99.90;;;;;;4984193;28;19929;-83
2023/04/01 04:46:28;;;;;;;;;;;9.40;99.90;;;;;;5000813;28;19918;-82
2023/04/01 04:48:53;;;;;;;;;;;9.30;99.90;;;;;;4990047;28;19910;-83
2023/04/01 04:51:20;;;;;;;;;;;9.30;99.90;;;;;;4990298;28;19906;-83
2023/04/01 04:53:50;;;;;;;;;;;9.30;99.90;;;;;;5002054;28;19909;-84
2023/04/01 04:56:28;;;;;;;;;;;9.30;99.90;;;;;;5003847;28;20382;-83
2023/04/01 04:58:54;;;;;;;;;;;9.30;99.90;;;;;;4981084;28;19911;-82
2023/04/01 05:01:22;;;;;;;;;;;9.30;99.90;;;;;;4990855;28;19905;-83
2023/04/01 05:03:52;;;;;;;;;;;9.30;99.90;;;;;;5006277;28;20007;-82
2023/04/01 05:06:17;;;;;;;;;;;9.40;99.90;;;;;;4991546;28;19921;-83
2023/04/01 05:08:45;;;;;;;;;;;9.40;99.90;;;;;;5015865;28;19909;-84
2023/04/01 05:11:15;;;;;;;;;;;9.50;99.90;;;;;;5018229;28;19893;-85
2023/04/01 05:13:45;;;;;;;;;;;9.70;99.90;;;;;;5016573;28;19913;-84
2023/04/01 05:16:19;;;;;;;;;;;10.50;99.90;;;;;;5024013;28;19905;-85
2023/04/01 05:18:55;;;;;;;;;;;11.80;99.90;;;;;;5013367;28;20429;-83
2023/04/01 05:21:20;;;;;;;;;;;13.30;99.90;;;;;;5000797;28;19905;-84
2023/04/01 05:23:46;;;;;;;;;;;14.60;99.90;;;;;;5012431;28;19928;-83
2023/04/01 05:26:22;;;;;;;;;;;15.70;99.20;;;;;;5003770;28;19920;-84
2023/04/01 05:28:50;;;;;;;;;;;16.50;96.80;;;;;;5007907;28;19912;-85
2023/04/01 05:31:16;;;;;;;;;;;17.50;94.70;;;;;;5006275;28;19912;-86
2023/04/01 05:33:41;;;;;;;;;;;18.00;91.90;;;;;;5010892;28;19909;-84
2023/04/01 05:36:11;;;;;;;;;;;17.10;91.90;;;;;;5017099;28;19917;-83
2023/04/01 05:38:38;;;;;;;;;;;16.70;92.80;;;;;;5008030;28;19909;-83
2023/04/01 05:41:10;;;;;;;;;;;17.00;92.60;;;;;;5023497;28;20369;-85
2023/04/01 05:43:38;;;;;;;;;;;18.40;90.10;;;;;;5007124;28;21030;-86
2023/04/01 05:46:03;;;;;;;;;;;19.90;84.50;;;;;;5013081;28;19909;-88
2023/04/01 05:48:29;;;;;;;;;;;21.00;77.10;;;;;;5005631;28;20341;-86
2023/04/01 05:50:56;;;;;;;;;;;21.80;72.40;;;;;;4994104;28;19909;-90
2023/04/01 05:53:28;;;;;;;;;;;21.80;70.20;;;;;;5015632;28;19915;-86
2023/04/01 05:55:54;;;;;;;;;;;23.20;66.70;;;;;;5011590;28;19909;-85
2023/04/01 05:58:22;;;;;;;;;;;23.20;64.60;;;;;;5003107;28;19955;-83
2023/04/01 06:01:02;;;;;;;;;;;24.20;61.70;;;;;;4995968;28;19910;-80
2023/04/01 06:03:29;;;;;;;;;;;24.50;59.40;;;;;;5005734;28;19917;-80
2023/04/01 06:05:55;;;;;;;;;;;24.70;57.90;;;;;;4989778;28;20318;-79
2023/04/01 06:08:30;;;;;;;;;;;25.20;57.20;;;;;;4998205;28;19906;-81
2023/04/01 06:11:04;;;;;;;;;;;25.60;55.00;;;;;;5000786;28;19920;-82
2023/04/01 06:13:37;;;;;;;;;;;26.50;54.70;;;;;;4997512;28;19913;-81
2023/04/01 06:16:31;;;;;;;;;;;26.70;53.30;;;;;;4997054;28;19909;-82
2023/04/01 06:19:13;;;;;;;;;;;26.60;52.20;;;;;;4995609;28;19912;-80
2023/04/01 06:21:52;;;;;;;;;;;27.00;52.10;;;;;;4999583;28;19910;-82
2023/04/01 06:24:26;;;;;;;;;;;26.70;51.80;;;;;;4993620;28;19909;-82
2023/04/01 06:27:01;;;;;;;;;;;26.10;52.40;;;;;;4994137;28;19914;-86
2023/04/01 06:29:58;;;;;;;;;;;25.00;53.40;;;;;;4994666;28;19913;-81
2023/04/01 06:32:24;;;;;;;;;;;25.40;53.80;;;;;;4988508;28;19906;-83
2023/04/01 06:35:09;;;;;;;;;;;25.10;53.20;;;;;;4996689;28;19992;-81
2023/04/01 06:37:52;;;;;;;;;;;25.40;53.30;;;;;;4981506;28;19912;-81
2023/04/01 06:43:25;;;;;;;;;;;26.10;52.40;;;;;;4998592;28;19952;-81
2023/04/01 06:45:55;;;;;;;;;;;26.30;52.00;;;;;;4999266;28;19959;-82
2023/04/01 06:48:24;;;;;;;;;;;27.00;51.80;;;;;;4994958;28;19989;-80
2023/04/01 06:51:09;;;;;;;;;;;26.90;50.60;;;;;;5003097;28;19916;-81
2023/04/01 06:53:58;;;;;;;;;;;26.80;51.00;;;;;;4992182;28;19956;-79
2023/04/01 06:56:26;;;;;;;;;;;25.10;52.10;;;;;;4989550;28;20429;-78
2023/04/01 06:59:28;;;;;;;;;;;25.20;52.90;;;;;;4987865;28;19910;-80
2023/04/01 07:01:57;;;;;;;;;;;25.20;53.00;;;;;;4925991;29;20745;-79
2023/04/01 07:04:25;;;;;;;;;;;26.60;51.90;;;;;;4986735;28;19912;-78
2023/04/01 07:06:53;;;;;;;;;;;28.60;50.00;;;;;;4998902;28;19913;-79
2023/04/01 07:09:32;;;;;;;;;;;29.30;48.60;;;;;;4998658;28;19912;-78
2023/04/01 07:12:00;;;;;;;;;;;30.80;47.30;;;;;;5000180;28;21268;-77
2023/04/01 07:14:35;;;;;;;;;;;30.70;46.40;;;;;;5007041;28;19966;-77
2023/04/01 07:17:08;;;;;;;;;;;31.00;45.80;;;;;;4990578;28;20383;-78
2023/04/01 07:19:57;;;;;;;;;;;29.70;45.90;;;;;;4982032;28;19909;-78
2023/04/01 07:22:35;;;;;;;;;;;29.80;46.00;;;;;;4989983;28;19912;-78
2023/04/01 07:25:25;;;;;;;;;;;30.30;45.30;;;;;;4994549;28;19945;-79
2023/04/01 07:27:57;;;;;;;;;;;30.50;45.10;;;;;;4964498;28;19975;-77
2023/04/01 07:30:24;;;;;;;;;;;30.20;45.90;;;;;;4994968;28;19909;-78
2023/04/01 07:32:56;;;;;;;;;;;30.60;45.60;;;;;;4975120;28;20473;-79
2023/04/01 07:35:24;;;;;;;;;;;30.70;44.90;;;;;;4983477;28;19914;-81
2023/04/01 07:38:07;;;;;;;;;;;31.10;45.10;;;;;;4986563;28;19952;-80
2023/04/01 07:40:51;;;;;;;;;;;33.10;44.90;;;;;;4992625;28;19957;-81
2023/04/01 07:43:29;;;;;;;;;;;33.90;42.90;;;;;;4984808;28;19905;-82
2023/04/01 07:45:58;;;;;;;;;;;33.80;42.00;;;;;;5001504;28;19924;-81
2023/04/01 07:48:55;;;;;;;;;;;35.20;42.10;;;;;;4993222;28;19910;-80
2023/04/01 07:51:44;;;;;;;;;;;35.20;41.10;;;;;;4937615;28;19960;-81
2023/04/01 07:54:29;;;;;;;;;;;35.30;39.90;;;;;;4991322;28;19916;-81
2023/04/01 07:57:05;;;;;;;;;;;33.30;41.90;;;;;;4992924;28;19960;-79
2023/04/01 07:59:34;;;;;;;;;;;33.50;41.60;;;;;;4985599;28;19996;-79
2023/04/01 08:02:04;;;;;;;;;;;33.60;41.20;;;;;;4997563;28;19996;-79
2023/04/01 08:04:36;;;;;;;;;;;34.00;40.50;;;;;;4994504;28;19969;-79
2023/04/01 08:07:34;;;;;;;;;;;35.10;39.80;;;;;;4976428;28;20278;-79
2023/04/01 08:10:11;;;;;;;;;;;33.90;40.00;;;;;;4989602;28;19923;-80
2023/04/01 08:12:37;;;;;;;;;;;33.00;39.70;;;;;;4979505;28;19917;-79
2023/04/01 08:15:26;;;;;;;;;;;33.60;40.40;;;;;;5000042;28;19912;-79
2023/04/01 08:18:08;;;;;;;;;;;33.30;40.00;;;;;;4979457;28;20087;-76
2023/04/01 08:21:03;;;;;;;;;;;33.70;39.80;;;;;;4978443;28;19996;-79
2023/04/01 08:23:48;;;;;;;;;;;31.60;41.30;;;;;;4980039;28;19912;-77
2023/04/01 08:26:25;;;;;;;;;;;28.90;43.00;;;;;;5002631;28;20401;-77
2023/04/01 08:29:04;;;;;;;;;;;26.80;44.70;;;;;;4979909;28;20263;-80
2023/04/01 08:31:49;;;;;;;;;;;23.40;47.90;;;;;;4995721;28;20004;-80
2023/04/01 08:34:23;;;;;;;;;;;22.40;51.10;;;;;;4997697;28;19905;-80
2023/04/01 08:37:10;;;;;;;;;;;21.80;52.50;;;;;;4991867;28;19918;-81
2023/04/01 08:39:50;;;;;;;;;;;20.90;53.60;;;;;;4996610;28;19952;-80
2023/04/01 08:42:34;;;;;;;;;;;19.20;56.60;;;;;;4982428;28;19906;-80
2023/04/01 08:45:22;;;;;;;;;;;18.90;57.00;;;;;;4981578;28;19913;-80
2023/04/01 08:48:11;;;;;;;;;;;18.70;57.50;;;;;;4993081;28;20506;-81
2023/04/01 08:51:00;;;;;;;;;;;21.60;53.80;;;;;;4991396;28;19996;-79
2023/04/01 08:53:26;;;;;;;;;;;25.20;49.30;;;;;;4993175;28;19910;-79
2023/04/01 08:56:06;;;;;;;;;;;24.40;47.80;;;;;;4980945;28;19906;-79
2023/04/01 08:58:45;;;;;;;;;;;23.60;49.30;;;;;;5004068;28;20279;-81
2023/04/01 09:01:20;;;;;;;;;;;21.80;51.50;;;;;;5002732;28;19972;-81
2023/04/01 09:04:11;;;;;;;;;;;21.70;53.20;;;;;;5007623;28;19909;-82
2023/04/01 09:07:11;;;;;;;;;;;22.40;51.20;;;;;;4975211;28;19913;-80
2023/04/01 09:09:56;;;;;;;;;;;21.60;52.10;;;;;;4920372;28;19906;-83
2023/04/01 09:12:28;;;;;;;;;;;20.70;53.40;;;;;;4941585;28;20473;-81
2023/04/01 09:15:13;;;;;;;;;;;19.90;55.10;;;;;;4944947;28;19935;-81
2023/04/01 09:17:51;;;;;;;;;;;19.40;56.10;;;;;;4927294;28;20291;-81
2023/04/01 09:20:19;;;;;;;;;;;19.40;56.60;;;;;;4974518;28;19933;-80
2023/04/01 09:23:05;;;;;;;;;;;19.30;56.40;;;;;;4984141;28;19909;-81
2023/04/01 09:25:39;;;;;;;;;;;18.80;57.30;;;;;;4933529;29;19907;-81
2023/04/01 09:28:09;;;;;;;;;;;18.40;58.30;;;;;;4971189;28;19944;-81
2023/04/01 09:30:45;;;;;;;;;;;17.90;59.30;;;;;;5000309;28;19906;-81
2023/04/01 09:33:12;;;;;;;;;;;17.50;60.20;;;;;;4997112;28;19955;-81
2023/04/01 09:35:48;;;;;;;;;;;16.40;62.00;;;;;;5000506;28;19906;-81
2023/04/01 09:38:17;;;;;;;;;;;16.00;64.60;;;;;;4986730;28;19916;-82
2023/04/01 09:40:57;;;;;;;;;;;15.70;65.50;;;;;;4975018;28;19909;-81
2023/04/01 09:43:26;;;;;;;;;;;16.90;65.20;;;;;;4980336;28;19917;-81
2023/04/01 09:45:54;;;;;;;;;;;20.50;59.50;;;;;;4988825;28;19909;-81
2023/04/01 09:48:55;;;;;;;;;;;23.00;54.40;;;;;;5009807;28;19906;-80
2023/04/01 09:51:40;;;;;;;;;;;22.30;52.80;;;;;;4988168;28;19913;-82
2023/04/01 09:54:26;;;;;;;;;;;21.20;54.10;;;;;;4997722;28;19905;-81
2023/04/01 09:57:08;;;;;;;;;;;22.60;52.90;;;;;;4994063;28;19905;-81
2023/04/01 09:59:54;;;;;;;;;;;26.10;50.40;;;;;;4987530;28;19904;-79
2023/04/01 10:02:33;;;;;;;;;;;26.00;48.30;;;;;;4990456;28;20615;-81
2023/04/01 10:05:05;;;;;;;;;;;28.90;46.60;;;;;;4964729;28;1154940;-80
2023/04/01 10:07:50;;;;;;;;;;;29.50;43.60;;;;;;4990316;28;20588;-80
2023/04/01 10:10:25;;;;;;;;;;;28.30;44.20;;;;;;4986637;28;20430;-80
2023/04/01 10:12:58;;;;;;;;;;;27.40;45.20;;;;;;4984805;28;19910;-78
2023/04/01 10:15:33;;;;;;;;;;;27.20;45.10;;;;;;4991190;28;19960;-78
2023/04/01 10:18:12;;;;;;;;;;;26.00;45.90;;;;;;5008200;28;19910;-78
2023/04/01 10:20:40;;;;;;;;;;;25.40;45.70;;;;;;5002515;28;19928;-79
2023/04/01 10:23:25;;;;;;;;;;;23.90;46.60;;;;;;5000384;28;19905;-79
2023/04/01 10:26:13;;;;;;;;;;;22.40;48.60;;;;;;4993645;28;19995;-81
2023/04/01 10:29:09;;;;;;;;;;;20.60;51.60;;;;;;4973354;28;19949;-81
2023/04/01 10:31:44;;;;;;;;;;;18.80;55.80;;;;;;4980622;28;19984;-80
2023/04/01 10:34:09;;;;;;;;;;;18.10;57.90;;;;;;4986133;28;20347;-81
2023/04/01 10:36:55;;;;;;;;;;;17.40;59.30;;;;;;4975808;28;19909;-81
2023/04/01 10:42:34;;;;;;;;;;;16.70;61.60;;;;;;4999062;28;19960;-80
2023/04/01 10:48:08;;;;;;;;;;;16.60;63.30;;;;;;5000395;28;19914;-81
2023/04/01 10:50:42;;;;;;;;;;;16.10;64.00;;;;;;4995883;28;19997;-81
2023/04/01 10:53:27;;;;;;;;;;;16.00;64.70;;;;;;5003038;28;19915;-80
2023/04/01 10:55:53;;;;;;;;;;;16.00;65.00;;;;;;5002554;28;19905;-81
2023/04/01 10:58:50;;;;;;;;;;;15.90;65.00;;;;;;5006057;28;19905;-80
2023/04/01 11:01:36;;;;;;;;;;;15.80;65.40;;;;;;4983339;28;19905;-80
2023/04/01 11:04:31;;;;;;;;;;;15.90;64.30;;;;;;4983025;28;19960;-80
2023/04/01 11:07:15;;;;;;;;;;;16.20;64.20;;;;;;5000813;28;19921;-81
2023/04/01 11:09:59;;;;;;;;;;;16.70;62.30;;;;;;5000267;28;19905;-81
2023/04/01 11:12:42;;;;;;;;;;;17.00;61.80;;;;;;4983630;28;19943;-80
2023/04/01 11:15:27;;;;;;;;;;;16.80;61.70;;;;;;4990965;28;19909;-85
2023/04/01 11:18:14;;;;;;;;;;;16.10;63.10;;;;;;4995411;28;19917;-81
2023/04/01 11:20:52;;;;;;;;;;;16.30;63.80;;;;;;4999361;28;19916;-81
2023/04/01 11:23:33;;;;;;;;;;;16.50;63.30;;;;;;5000454;28;19956;-81
2023/04/01 11:26:07;;;;;;;;;;;16.30;63.70;;;;;;4984217;28;19925;-80
2023/04/01 11:28:42;;;;;;;;;;;16.60;63.60;;;;;;4997934;28;20654;-81
2023/04/01 11:31:15;;;;;;;;;;;16.80;63.30;;;;;;4997826;28;20012;-80
2023/04/01 11:33:54;;;;;;;;;;;17.00;62.90;;;;;;4996637;28;19905;-81
2023/04/01 11:36:40;;;;;;;;;;;17.60;61.70;;;;;;4995935;28;19913;-80
2023/04/01 11:39:21;;;;;;;;;;;18.10;60.60;;;;;;5006845;28;19905;-80
2023/04/01 11:41:55;;;;;;;;;;;18.60;59.70;;;;;;4997830;28;19905;-80
2023/04/01 11:44:24;;;;;;;;;;;18.50;59.00;;;;;;4997239;28;20017;-81
2023/04/01 11:47:12;;;;;;;;;;;17.90;58.80;;;;;;4999912;28;20705;-81
2023/04/01 11:49:58;;;;;;;;;;;17.50;60.00;;;;;;4985455;28;19971;-81
2023/04/01 11:52:42;;;;;;;;;;;17.50;60.70;;;;;;4998463;28;19953;-80
2023/04/01 11:55:27;;;;;;;;;;;17.20;60.50;;;;;;4998167;28;19906;-80
2023/04/01 11:58:11;;;;;;;;;;;17.10;62.20;;;;;;4983838;28;19952;-80
2023/04/01 12:00:59;;;;;;;;;;;17.50;61.90;;;;;;4985030;28;20008;-80
2023/04/01 12:03:43;;;;;;;;;;;18.00;60.60;;;;;;4982524;28;19909;-80
2023/04/01 12:06:16;;;;;;;;;;;18.30;60.30;;;;;;4978892;28;19913;-80
2023/04/01 12:09:00;;;;;;;;;;;17.80;60.00;;;;;;5005880;28;19911;-81
2023/04/01 12:11:28;;;;;;;;;;;17.90;60.40;;;;;;4987071;28;19913;-80
2023/04/01 12:13:57;;;;;;;;;;;17.90;60.00;;;;;;4981073;28;19958;-83
2023/04/01 12:16:25;;;;;;;;;;;18.00;60.10;;;;;;4987804;28;19909;-81
2023/04/01 12:18:54;;;;;;;;;;;17.60;59.10;;;;;;4972259;28;19910;-80
2023/04/01 12:21:26;;;;;;;;;;;17.50;59.80;;;;;;4996831;28;19905;-80
2023/04/01 12:24:12;;;;;;;;;;;17.40;59.80;;;;;;4972290;28;19909;-80
2023/04/01 12:26:41;;;;;;;;;;;17.70;59.90;;;;;;4979229;28;19913;-81
2023/04/01 12:29:26;;;;;;;;;;;17.90;59.80;;;;;;5005088;28;19910;-80
2023/04/01 12:32:14;;;;;;;;;;;18.00;59.80;;;;;;4996551;28;19912;-80
2023/04/01 12:34:50;;;;;;;;;;;18.00;59.80;;;;;;4996158;28;19906;-81
2023/04/01 12:37:23;;;;;;;;;;;17.90;59.60;;;;;;4986041;28;19912;-80
2023/04/01 12:40:05;;;;;;;;;;;17.70;60.10;;;;;;4989056;28;19928;-80
2023/04/01 12:42:38;;;;;;;;;;;17.40;60.10;;;;;;4995568;28;19917;-80
2023/04/01 12:45:23;;;;;;;;;;;17.20;61.00;;;;;;4999805;28;19910;-80
2023/04/01 12:47:59;;;;;;;;;;;17.00;64.80;;;;;;4976617;28;19909;-82
2023/04/01 12:50:37;;;;;;;;;;;16.80;67.00;;;;;;4990449;28;19991;-80
2023/04/01 12:53:13;;;;;;;;;;;16.80;69.80;;;;;;4980937;28;19937;-81
2023/04/01 12:55:50;;;;;;;;;;;16.90;68.70;;;;;;4999720;28;19956;-80
2023/04/01 13:01:14;;;;;;;;;;;18.10;64.10;;;;;;5002207;28;19993;-80
2023/04/01 13:04:02;;;;;;;;;;;18.10;60.50;;;;;;4999448;28;19909;-80
2023/04/01 13:12:33;;;;;;;;;;;17.80;58.60;;;;;;5006894;28;20417;-80
2023/04/01 13:15:19;;;;;;;;;;;18.10;59.80;;;;;;4988013;28;19905;-81
2023/04/01 13:18:06;;;;;;;;;;;18.20;58.70;;;;;;4977003;28;20503;-81
2023/04/01 13:21:05;;;;;;;;;;;17.90;58.30;;;;;;4986950;28;19905;-80
2023/04/01 13:26:43;;;;;;;;;;;17.80;58.40;;;;;;5003179;28;20155;-81
2023/04/01 13:29:18;;;;;;;;;;;17.80;58.80;;;;;;4976772;28;19910;-83
2023/04/01 13:31:55;;;;;;;;;;;17.90;58.50;;;;;;4981474;28;19905;-80
2023/04/01 13:34:30;;;;;;;;;;;17.70;58.90;;;;;;5005987;28;20355;-81
2023/04/01 13:37:17;;;;;;;;;;;17.70;59.10;;;;;;5002041;28;19913;-81
2023/04/01 13:39:46;;;;;;;;;;;17.60;59.20;;;;;;4992692;28;20739;-80
2023/04/01 13:42:21;;;;;;;;;;;17.70;58.90;;;;;;4982425;28;19913;-81
2023/04/01 13:44:47;;;;;;;;;;;18.20;58.70;;;;;;4986365;28;20008;-80
2023/04/01 13:47:15;;;;;;;;;;;18.50;58.00;;;;;;4985586;28;20557;-81
2023/04/01 13:49:49;;;;;;;;;;;18.60;57.50;;;;;;5000173;28;19912;-81
2023/04/01 13:52:40;;;;;;;;;;;18.80;56.90;;;;;;4987390;28;20350;-81
2023/04/01 13:55:25;;;;;;;;;;;19.00;57.00;;;;;;4965050;28;19913;-81
2023/04/01 13:58:00;;;;;;;;;;;18.90;56.70;;;;;;4984685;28;19910;-82
2023/04/01 14:00:41;;;;;;;;;;;18.40;57.30;;;;;;4985904;28;19913;-83
2023/04/01 14:03:07;;;;;;;;;;;18.00;58.20;;;;;;4985088;28;19909;-82
2023/04/01 14:05:43;;;;;;;;;;;17.50;58.80;;;;;;4999984;28;19924;-83
2023/04/01 14:08:16;;;;;;;;;;;17.50;59.50;;;;;;5008724;28;19912;-80
2023/04/01 14:11:00;;;;;;;;;;;17.40;59.30;;;;;;4987989;28;19905;-80
2023/04/01 14:13:51;;;;;;;;;;;17.20;60.30;;;;;;4988780;28;19916;-82
2023/04/01 14:16:20;;;;;;;;;;;16.80;60.60;;;;;;4989675;28;19905;-80
2023/04/01 14:18:46;;;;;;;;;;;16.90;60.50;;;;;;4984059;28;19952;-80
2023/04/01 14:21:16;;;;;;;;;;;16.90;60.90;;;;;;4999655;28;20528;-78
2023/04/01 14:24:04;;;;;;;;;;;17.00;60.80;;;;;;4985323;28;19913;-78
2023/04/01 14:26:42;;;;;;;;;;;16.90;59.90;;;;;;5011434;28;19917;-79
2023/04/01 14:29:23;;;;;;;;;;;16.90;60.50;;;;;;4999776;28;19910;-78
2023/04/01 14:31:49;;;;;;;;;;;17.00;60.40;;;;;;5003521;28;19944;-79
2023/04/01 14:34:18;;;;;;;;;;;17.00;59.50;;;;;;4992383;28;19905;-78
2023/04/01 14:37:03;;;;;;;;;;;17.00;59.70;;;;;;4997224;28;19909;-79
2023/04/01 14:39:30;;;;;;;;;;;17.00;59.50;;;;;;4986987;28;19914;-79
2023/04/01 14:41:59;;;;;;;;;;;17.20;58.90;;;;;;4991137;28;19920;-78
2023/04/01 14:44:44;;;;;;;;;;;17.40;57.80;;;;;;5011072;28;19909;-79
2023/04/01 14:47:09;;;;;;;;;;;17.50;57.10;;;;;;4985591;28;20419;-79
2023/04/01 14:49:54;;;;;;;;;;;17.80;56.60;;;;;;4989026;28;19996;-79
2023/04/01 14:52:37;;;;;;;;;;;18.00;56.20;;;;;;4984012;28;19940;-78
2023/04/01 14:55:24;;;;;;;;;;;18.20;55.70;;;;;;5004035;28;19909;-78
2023/04/01 14:58:10;;;;;;;;;;;18.40;55.60;;;;;;4983404;28;19913;-79
2023/04/01 15:00:43;;;;;;;;;;;18.20;54.70;;;;;;4977862;28;19914;-79
2023/04/01 15:03:32;;;;;;;;;;;18.00;55.10;;;;;;5004997;28;19916;-78
2023/04/01 15:06:17;;;;;;;;;;;17.90;55.30;;;;;;5004517;28;19975;-80
2023/04/01 15:09:01;;;;;;;;;;;17.70;55.60;;;;;;4992303;28;19910;-78
2023/04/01 15:11:35;;;;;;;;;;;17.50;55.50;;;;;;4985756;28;19917;-79
2023/04/01 15:14:18;;;;;;;;;;;17.40;55.50;;;;;;4988403;28;20004;-79
2023/04/01 15:17:09;;;;;;;;;;;17.30;56.30;;;;;;4995844;28;20608;-80
2023/04/01 15:20:02;;;;;;;;;;;17.20;56.30;;;;;;4990052;28;19909;-79
2023/04/01 15:22:32;;;;;;;;;;;17.00;56.40;;;;;;5005108;28;19913;-79
2023/04/01 15:25:05;;;;;;;;;;;16.90;57.20;;;;;;4987103;28;19917;-79
2023/04/01 15:27:50;;;;;;;;;;;16.80;57.90;;;;;;4979307;28;19963;-80
2023/04/01 15:30:26;;;;;;;;;;;16.70;58.80;;;;;;4990897;28;20024;-79
2023/04/01 15:33:03;;;;;;;;;;;16.60;59.80;;;;;;4998045;28;19987;-78